Time;durP1;ratioP1;P1;durP2;ratioP2;P2;SDS_P1;SDS_P2;PMS_P1;PMS_P2;Temp;Humidity;BMP_temperature;BMP_pressure;BME280_temperature;BME280_humidity;BME280_pressure;Samples;Min_cycle;Max_cycle;Signal;HPM_P1;HPM_P2
2023/12/05 00:00:08;;;;;;;22.30;9.85;;;;;;;2.98;71.24;99159.59;10238404;28;20039;-58
2023/12/05 00:05:09;;;;;;;21.98;9.88;;;;;;;3.09;70.70;99153.22;10238369;28;20082;-58
2023/12/05 00:10:11;;;;;;;19.25;8.65;;;;;;;3.15;70.57;99139.28;10238729;28;20061;-59
2023/12/05 00:15:13;;;;;;;21.13;9.32;;;;;;;3.20;70.92;99133.50;10237093;28;20134;-57
2023/12/05 00:20:14;;;;;;;22.15;10.30;;;;;;;3.28;70.79;99114.94;10238387;28;20135;-57
2023/12/05 00:25:16;;;;;;;26.33;9.93;;;;;;;3.26;71.13;99119.59;10237528;28;20082;-57
2023/12/05 00:30:17;;;;;;;22.60;10.10;;;;;;;3.24;70.92;99117.09;10238088;28;20055;-56
2023/12/05 00:35:19;;;;;;;21.92;10.27;;;;;;;3.28;71.13;99114.94;10237936;28;20067;-57
2023/12/05 00:40:21;;;;;;;20.60;9.68;;;;;;;3.34;71.32;99109.03;10235907;28;20073;-56
2023/12/05 00:45:23;;;;;;;22.30;9.40;;;;;;;3.35;71.04;99102.69;10236186;28;20146;-57
2023/12/05 00:50:24;;;;;;;23.70;9.43;;;;;;;3.40;71.44;99107.53;10235437;28;20047;-57
2023/12/05 00:55:37;;;;;;;22.08;9.73;;;;;;;3.36;71.30;99107.03;10230683;28;20055;-56
2023/12/05 01:00:39;;;;;;;23.92;10.65;;;;;;;3.38;71.49;99105.88;10236999;28;20051;-57
2023/12/05 01:05:40;;;;;;;22.05;10.23;;;;;;;3.41;71.61;99103.88;10236726;28;20134;-56
2023/12/05 01:10:42;;;;;;;24.50;10.68;;;;;;;3.46;71.45;99101.59;10237539;28;20058;-57
2023/12/05 01:15:43;;;;;;;21.63;10.10;;;;;;;3.44;71.92;99104.41;10236049;28;20090;-57
2023/12/05 01:20:45;;;;;;;19.95;10.07;;;;;;;3.49;72.06;99101.25;10237721;28;20047;-57
2023/12/05 01:25:46;;;;;;;26.95;9.68;;;;;;;3.53;71.89;99098.09;10236160;28;20043;-57
2023/12/05 01:30:48;;;;;;;26.95;10.77;;;;;;;3.58;71.98;99093.16;10236986;28;20690;-58
2023/12/05 01:35:49;;;;;;;23.13;9.82;;;;;;;3.53;72.54;99106.06;10234915;28;20039;-57
2023/12/05 01:40:51;;;;;;;26.15;10.38;;;;;;;3.56;72.52;99104.94;10239574;28;20499;-58
2023/12/05 01:45:53;;;;;;;19.25;10.05;;;;;;;3.57;72.60;99099.47;10248444;28;20058;-58
2023/12/05 01:50:55;;;;;;;23.40;9.85;;;;;;;3.50;73.16;99103.75;10249567;28;20059;-58
2023/12/05 01:55:58;;;;;;;25.75;10.82;;;;;;;3.46;73.29;99096.28;10246118;28;20054;-57
2023/12/05 02:01:01;;;;;;;25.73;10.23;;;;;;;3.22;73.90;99102.31;10249355;28;20507;-57
2023/12/05 02:06:03;;;;;;;25.38;10.35;;;;;;;3.18;74.28;99093.84;10248086;28;20110;-57
2023/12/05 02:11:05;;;;;;;27.50;12.02;;;;;;;3.32;74.04;99087.09;10248496;28;20043;-57
2023/12/05 02:16:19;;;;;;;30.52;13.75;;;;;;;3.31;73.77;99086.25;10230307;28;20054;-59
2023/12/05 02:21:34;;;;;;;28.92;12.57;;;;;;;3.40;73.95;99094.25;10248789;28;20414;-57
2023/12/05 02:26:57;;;;;;;26.17;12.18;;;;;;;3.29;73.96;99084.75;10248667;28;20047;-57
2023/12/05 02:31:58;;;;;;;36.15;12.60;;;;;;;3.40;74.04;99075.66;10246234;28;20051;-56
2023/12/05 02:37:12;;;;;;;28.60;11.63;;;;;;;3.47;74.16;99071.34;10247308;28;20059;-57
2023/12/05 02:42:14;;;;;;;27.95;11.05;;;;;;;3.39;74.06;99064.19;10245725;28;20062;-58
2023/12/05 02:47:19;;;;;;;25.17;12.45;;;;;;;3.18;74.51;99073.44;10262225;28;20055;-56
2023/12/05 02:52:20;;;;;;;26.83;12.48;;;;;;;3.21;75.04;99071.44;10257473;28;20050;-56
2023/12/05 02:57:22;;;;;;;28.98;11.98;;;;;;;3.33;74.70;99067.50;10241864;28;20047;-57
2023/12/05 03:02:23;;;;;;;26.92;11.85;;;;;;;3.43;74.28;99064.72;10240269;28;20418;-56
2023/12/05 03:07:24;;;;;;;26.77;12.13;;;;;;;3.32;74.63;99068.50;10240691;28;20063;-56
2023/12/05 03:12:26;;;;;;;34.15;12.07;;;;;;;3.22;75.21;99076.59;10237881;28;20062;-57
2023/12/05 03:17:27;;;;;;;29.90;11.45;;;;;;;3.11;75.53;99069.75;10239202;28;20047;-58
2023/12/05 03:22:29;;;;;;;34.03;13.93;;;;;;;3.27;75.16;99066.31;10237008;28;20047;-58
2023/12/05 03:27:31;;;;;;;35.78;13.70;;;;;;;3.38;74.57;99058.06;10239994;28;20470;-58
2023/12/05 03:32:33;;;;;;;31.15;12.23;;;;;;;3.44;74.80;99069.88;10236301;28;20051;-58
2023/12/05 03:37:34;;;;;;;37.42;14.45;;;;;;;3.40;74.85;99062.38;10237300;28;20047;-58
2023/12/05 03:42:36;;;;;;;34.08;13.77;;;;;;;3.38;75.00;99063.38;10235881;28;20047;-58
2023/12/05 03:47:37;;;;;;;38.70;13.43;;;;;;;3.50;74.89;99061.25;10238666;28;20055;-58
2023/12/05 03:52:39;;;;;;;32.47;14.77;;;;;;;3.62;74.72;99059.13;10235317;28;20122;-58
2023/12/05 03:57:40;;;;;;;34.55;14.40;;;;;;;3.73;74.32;99056.16;10235659;28;20102;-58
2023/12/05 04:02:41;;;;;;;33.70;14.02;;;;;;;3.83;74.40;99063.13;10237260;28;20157;-58
2023/12/05 04:07:46;;;;;;;34.47;13.27;;;;;;;3.85;74.24;99064.63;10236879;28;20039;-58
2023/12/05 04:12:47;;;;;;;31.90;14.07;;;;;;;3.87;74.31;99064.44;10234334;28;20047;-58
2023/12/05 04:17:48;;;;;;;32.40;12.98;;;;;;;3.88;74.46;99058.16;10237082;28;20102;-57
2023/12/05 04:22:50;;;;;;;33.05;13.35;;;;;;;3.93;74.32;99059.31;10235701;28;20043;-58
2023/12/05 04:27:51;;;;;;;39.58;14.90;;;;;;;3.98;74.38;99062.31;10237848;28;20043;-58
2023/12/05 04:32:53;;;;;;;35.35;14.43;;;;;;;3.97;74.54;99067.81;10250658;28;20054;-58
2023/12/05 04:37:54;;;;;;;29.42;12.63;;;;;;;3.98;74.46;99059.63;10234462;28;20580;-58
2023/12/05 04:42:56;;;;;;;28.88;12.55;;;;;;;4.00;74.35;99058.66;10233348;28;20047;-58
2023/12/05 04:47:57;;;;;;;31.45;13.60;;;;;;;3.93;75.02;99058.47;10236599;28;20043;-58
2023/12/05 04:52:59;;;;;;;39.70;14.52;;;;;;;3.96;74.85;99051.00;10235069;28;20039;-58
2023/12/05 04:58:00;;;;;;;30.70;13.68;;;;;;;3.88;75.18;99058.16;10235217;28;20066;-58
2023/12/05 05:03:03;;;;;;;27.67;12.60;;;;;;;3.73;75.41;99056.16;10234103;28;20054;-58
2023/12/05 05:08:05;;;;;;;30.38;13.75;;;;;;;3.72;75.51;99056.31;10235917;28;20154;-58
2023/12/05 05:13:07;;;;;;;32.33;13.25;;;;;;;3.66;75.71;99055.13;10234504;28;20082;-58
2023/12/05 05:18:08;;;;;;;34.88;15.05;;;;;;;3.74;75.35;99063.13;10232039;28;20040;-58
2023/12/05 05:23:10;;;;;;;38.38;14.48;;;;;;;3.67;75.70;99061.28;10233655;28;20035;-58
2023/12/05 05:28:11;;;;;;;41.75;13.80;;;;;;;3.77;75.42;99062.81;10234732;28;20067;-58
2023/12/05 05:33:12;;;;;;;34.40;14.55;;;;;;;3.78;75.42;99059.13;10248005;28;20054;-58
2023/12/05 05:38:14;;;;;;;44.97;14.63;;;;;;;3.61;75.88;99062.75;10234253;28;20060;-59
2023/12/05 05:43:15;;;;;;;40.83;13.98;;;;;;;3.68;75.98;99063.78;10232647;28;20050;-59
2023/12/05 05:48:17;;;;;;;36.47;14.43;;;;;;;3.72;75.84;99061.63;10231371;28;20057;-58
2023/12/05 05:53:18;;;;;;;37.95;14.15;;;;;;;3.84;75.97;99075.44;10232235;28;20051;-58
2023/12/05 05:58:20;;;;;;;46.95;15.73;;;;;;;3.85;75.80;99079.72;10234374;28;20066;-58
2023/12/05 06:03:21;;;;;;;44.72;15.10;;;;;;;3.86;75.76;99079.56;10232904;28;20419;-57
2023/12/05 06:08:23;;;;;;;42.70;13.60;;;;;;;3.88;75.84;99076.75;10229726;28;20058;-58
2023/12/05 06:13:24;;;;;;;39.47;15.75;;;;;;;3.87;75.56;99073.28;10225772;28;20058;-58
2023/12/05 06:18:25;;;;;;;51.63;15.00;;;;;;;4.01;75.94;99078.91;10227535;28;20047;-58
2023/12/05 06:23:27;;;;;;;43.40;14.55;;;;;;;4.10;75.24;99078.75;10229714;28;20090;-58
2023/12/05 06:28:28;;;;;;;43.92;15.00;;;;;;;4.13;75.38;99069.63;10232889;28;20047;-57
2023/12/05 06:33:30;;;;;;;47.95;16.27;;;;;;;4.26;75.39;99069.94;10235864;28;20047;-57
2023/12/05 06:38:32;;;;;;;37.80;15.52;;;;;;;4.32;75.57;99061.28;10236962;28;20043;-57
2023/12/05 06:43:33;;;;;;;40.47;13.90;;;;;;;4.40;75.15;99067.59;10239321;28;20051;-58
2023/12/05 06:48:35;;;;;;;39.63;15.43;;;;;;;4.25;75.37;99078.13;10254732;28;20050;-59
2023/12/05 06:53:36;;;;;;;44.53;15.05;;;;;;;3.99;76.44;99076.44;10234885;28;20047;-59
2023/12/05 06:58:45;;;;;;;37.35;14.45;;;;;;;4.12;75.83;99084.75;10238386;28;20587;-58
2023/12/05 07:03:46;;;;;;;46.47;16.10;;;;;;;3.87;76.55;99093.69;10237978;28;20043;-59
2023/12/05 07:08:57;;;;;;;42.78;15.70;;;;;;;3.77;77.34;99105.31;10237542;28;20058;-67
2023/12/05 07:13:58;;;;;;;40.45;15.25;;;;;;;4.04;76.62;99111.31;10237471;28;20067;-67
2023/12/05 07:19:00;;;;;;;47.45;14.57;;;;;;;4.21;76.56;99119.34;10237260;28;20055;-67
2023/12/05 07:24:01;;;;;;;39.45;15.15;;;;;;;4.35;76.09;99116.84;10237840;28;20043;-62
2023/12/05 07:29:03;;;;;;;43.67;15.15;;;;;;;4.49;75.77;99119.81;10237091;28;20043;-65
2023/12/05 07:34:05;;;;;;;45.15;16.48;;;;;;;4.49;75.97;99119.81;10236090;28;20414;-64
2023/12/05 07:39:09;;;;;;;38.75;16.60;;;;;;;4.47;76.12;99130.63;10239565;28;20127;-65
2023/12/05 07:44:11;;;;;;;45.95;15.05;;;;;;;4.46;76.06;99131.63;10236912;28;20051;-64
2023/12/05 07:49:12;;;;;;;51.88;15.77;;;;;;;4.56;76.29;99136.78;10235695;28;20047;-65
2023/12/05 07:54:14;;;;;;;51.30;15.02;;;;;;;4.59;76.42;99127.63;10238081;28;20051;-59
2023/12/05 07:59:15;;;;;;;45.50;19.02;;;;;;;4.68;75.83;99121.28;10239599;28;20055;-59
2023/12/05 08:04:17;;;;;;;51.05;18.73;;;;;;;4.68;75.97;99127.47;10238399;28;20086;-60
2023/12/05 08:09:18;;;;;;;49.03;16.70;;;;;;;4.79;76.59;99126.28;10239796;28;20051;-59
2023/12/05 08:14:20;;;;;;;42.35;16.33;;;;;;;4.95;75.97;99136.06;10236469;28;20129;-59
2023/12/05 08:19:21;;;;;;;49.10;16.92;;;;;;;5.03;76.76;99136.03;10236163;28;20054;-61
2023/12/05 08:24:23;;;;;;;49.55;16.90;;;;;;;5.27;76.18;99136.97;10239321;28;20419;-59
2023/12/05 08:29:24;;;;;;;49.15;16.40;;;;;;;5.34;76.29;99152.09;10235126;28;20392;-59
2023/12/05 08:34:26;;;;;;;34.42;14.02;;;;;;;5.38;76.06;99167.75;10242736;28;20059;-59
2023/12/05 08:39:28;;;;;;;47.03;15.70;;;;;;;5.46;76.22;99165.06;10246282;28;20055;-59
2023/12/05 08:44:31;;;;;;;57.55;15.65;;;;;;;5.49;76.01;99164.69;10227431;28;20050;-59
2023/12/05 08:49:33;;;;;;;40.22;17.42;;;;;;;5.51;76.61;99176.00;10234740;28;20039;-59
2023/12/05 08:54:34;;;;;;;46.03;16.83;;;;;;;5.52;75.66;99172.34;10237042;28;20065;-58
2023/12/05 08:59:37;;;;;;;34.65;14.48;;;;;;;5.52;76.08;99164.34;10238387;28;20550;-59
2023/12/05 09:04:39;;;;;;;36.67;14.57;;;;;;;5.45;76.66;99171.38;10236679;28;20047;-58
2023/12/05 09:09:41;;;;;;;36.70;16.20;;;;;;;5.44;76.27;99175.88;10237760;28;20047;-60
2023/12/05 09:14:43;;;;;;;37.28;15.95;;;;;;;5.35;77.06;99169.75;10237493;28;20082;-60
2023/12/05 09:19:44;;;;;;;35.60;14.98;;;;;;;5.59;76.36;99175.16;10236272;28;20623;-58
2023/12/05 09:24:47;;;;;;;40.47;16.98;;;;;;;5.69;75.78;99186.47;10238115;28;20054;-61
2023/12/05 09:29:48;;;;;;;41.00;19.10;;;;;;;5.86;75.64;99181.88;10239390;28;20114;-57
2023/12/05 09:34:52;;;;;;;38.42;15.35;;;;;;;5.82;75.72;99202.72;10239682;28;20435;-58
2023/12/05 09:39:53;;;;;;;33.97;14.50;;;;;;;5.92;76.10;99200.69;10240195;28;20048;-59
2023/12/05 09:44:57;;;;;;;38.30;17.05;;;;;;;6.01;75.67;99198.81;10238001;28;20130;-58
2023/12/05 09:50:00;;;;;;;31.83;13.52;;;;;;;6.05;75.25;99200.13;10239870;28;20047;-58
2023/12/05 09:55:01;;;;;;;31.15;14.20;;;;;;;6.12;75.70;99194.91;10240862;28;20571;-58
2023/12/05 10:00:04;;;;;;;33.83;15.23;;;;;;;6.18;75.58;99198.72;10237737;28;20043;-57
2023/12/05 10:05:08;;;;;;;30.55;15.13;;;;;;;6.15;76.13;99199.91;10243300;28;20049;-57
2023/12/05 10:10:11;;;;;;;33.05;13.70;;;;;;;6.10;76.49;99195.13;10242379;28;20515;-58
2023/12/05 10:15:12;;;;;;;31.65;14.07;;;;;;;6.21;75.58;99193.03;10246063;28;20050;-59
2023/12/05 10:20:14;;;;;;;26.05;13.10;;;;;;;6.12;75.91;99186.91;10248189;28;20048;-59
2023/12/05 10:25:16;;;;;;;25.13;10.88;;;;;;;6.12;76.02;99189.59;10249755;28;20048;-57
2023/12/05 10:30:30;;;;;;;29.55;12.88;;;;;;;6.31;76.01;99178.44;10248570;28;20050;-57
2023/12/05 10:35:32;;;;;;;31.60;15.10;;;;;;;6.44;75.50;99182.41;10253666;28;20046;-57
2023/12/05 10:40:48;;;;;;;30.83;13.43;;;;;;;6.57;75.79;99187.13;10250868;28;20510;-58
2023/12/05 10:45:50;;;;;;;24.73;11.75;;;;;;;6.56;75.46;99191.63;10252412;28;20047;-59
2023/12/05 10:50:52;;;;;;;26.02;12.27;;;;;;;6.47;76.10;99179.34;10251906;28;20043;-59
2023/12/05 10:55:53;;;;;;;25.10;11.82;;;;;;;6.62;75.19;99180.25;10250001;28;20386;-58
2023/12/05 11:00:56;;;;;;;23.30;10.27;;;;;;;6.66;76.31;99178.88;10241677;28;20090;-62
2023/12/05 11:05:58;;;;;;;18.65;9.63;;;;;;;6.79;75.58;99172.06;10236547;28;20058;-61
2023/12/05 11:11:03;;;;;;;30.33;11.65;;;;;;;7.00;75.42;99171.38;10243690;28;20049;-60
2023/12/05 11:16:16;;;;;;;29.42;12.02;;;;;;;7.23;75.34;99172.16;10246322;28;20062;-60
2023/12/05 11:21:18;;;;;;;22.83;11.40;;;;;;;7.54;75.04;99165.78;10250015;28;20513;-60
2023/12/05 11:26:22;;;;;;;20.45;10.35;;;;;;;7.73;75.50;99159.84;10247124;28;20039;-59
2023/12/05 11:32:21;;;;;;;18.27;10.15;;;;;;;7.63;75.02;99161.16;10248280;28;20059;-60
2023/12/05 11:38:00;;;;;;;22.38;11.48;;;;;;;7.72;75.23;99162.69;10265303;28;20047;-60
2023/12/05 11:43:12;;;;;;;25.65;12.40;;;;;;;7.74;75.34;99158.84;10250188;28;20497;-59
2023/12/05 11:48:21;;;;;;;29.85;11.45;;;;;;;7.58;75.44;99153.69;10248854;28;20057;-59
2023/12/05 11:53:23;;;;;;;25.08;10.50;;;;;;;7.74;75.33;99158.00;10250129;28;20055;-59
2023/12/05 11:58:28;;;;;;;24.30;10.25;;;;;;;7.69;75.49;99165.78;10250562;28;20059;-59
2023/12/05 12:03:54;;;;;;;20.92;10.13;;;;;;;7.66;75.65;99152.75;10248372;28;20558;-60
2023/12/05 12:08:58;;;;;;;27.02;10.43;;;;;;;7.76;74.79;99158.66;10249925;28;20047;-60
2023/12/05 12:14:11;;;;;;;19.95;8.55;;;;;;;7.75;75.11;99157.81;10251359;28;20051;-59
2023/12/05 12:19:14;;;;;;;15.90;6.68;;;;;;;7.68;75.77;99154.25;10265606;28;20039;-60
2023/12/05 12:24:22;;;;;;;17.83;4.60;;;;;;;7.59;75.87;99151.88;10249469;28;20403;-61
2023/12/05 12:29:25;;;;;;;3.05;1.23;;;;;;;7.60;75.91;99148.16;10252480;28;20062;-60
2023/12/05 12:34:27;;;;;;;1.85;0.82;;;;;;;7.68;76.39;99146.22;10249242;28;20105;-60
2023/12/05 12:39:29;;;;;;;1.88;0.55;;;;;;;7.84;76.34;99138.97;10248191;28;20044;-60
2023/12/05 12:44:31;;;;;;;2.55;0.60;;;;;;;7.89;76.13;99136.56;10245549;28;20055;-60
2023/12/05 12:49:32;;;;;;;2.55;0.50;;;;;;;8.09;75.73;99134.94;10243389;28;20566;-61
2023/12/05 12:54:37;;;;;;;2.88;0.57;;;;;;;8.20;76.07;99138.97;10246627;28;20047;-61
2023/12/05 12:59:42;;;;;;;2.58;0.70;;;;;;;8.26;75.69;99143.56;10242642;28;20049;-59
2023/12/05 13:04:44;;;;;;;3.60;0.50;;;;;;;8.20;75.81;99147.00;10248838;28;20102;-61
2023/12/05 13:09:46;;;;;;;2.40;0.50;;;;;;;8.28;75.76;99143.38;10250818;28;20055;-60
2023/12/05 13:14:49;;;;;;;2.95;0.38;;;;;;;8.27;75.33;99145.22;10246315;28;20131;-60
2023/12/05 13:20:03;;;;;;;3.20;0.30;;;;;;;8.38;74.80;99149.22;10245572;28;20050;-60
2023/12/05 13:25:06;;;;;;;2.67;0.30;;;;;;;8.45;74.97;99144.81;10242976;28;20047;-60
2023/12/05 13:30:07;;;;;;;0.82;0.20;;;;;;;8.47;74.89;99145.44;10247614;28;20047;-60
2023/12/05 13:35:09;;;;;;;0.50;0.28;;;;;;;8.42;74.73;99137.16;10248749;28;20067;-59
2023/12/05 13:40:11;;;;;;;2.65;1.55;;;;;;;8.41;74.55;99143.53;10244599;28;20051;-61
2023/12/05 13:45:12;;;;;;;1.15;0.28;;;;;;;8.34;74.54;99150.63;10245397;28;20047;-63
2023/12/05 13:50:14;;;;;;;2.50;0.35;;;;;;;8.20;75.17;99170.28;10249306;28;20056;-60
2023/12/05 13:55:15;;;;;;;1.13;0.50;;;;;;;8.06;75.39;99164.78;10245320;28;20047;-59
2023/12/05 14:00:17;;;;;;;0.65;0.30;;;;;;;7.94;75.46;99171.63;10244522;28;20055;-60
2023/12/05 14:05:18;;;;;;;1.80;0.20;;;;;;;7.80;75.29;99175.16;10236505;28;20051;-60
2023/12/05 14:10:20;;;;;;;2.33;0.20;;;;;;;7.72;75.21;99171.59;10229077;28;20412;-60
2023/12/05 14:15:21;;;;;;;0.57;0.30;;;;;;;7.66;75.27;99191.06;10237037;28;20047;-60
2023/12/05 14:20:27;;;;;;;1.38;0.20;;;;;;;7.59;75.22;99205.34;10233668;28;20071;-61
2023/12/05 14:25:28;;;;;;;1.85;0.13;;;;;;;7.49;75.48;99203.78;10230373;28;20058;-61
2023/12/05 14:30:30;;;;;;;1.10;0.20;;;;;;;7.30;75.62;99217.69;10234981;28;20911;-62
2023/12/05 14:35:31;;;;;;;0.73;0.32;;;;;;;7.28;75.36;99203.66;10229417;28;20047;-61
2023/12/05 14:40:33;;;;;;;0.45;0.20;;;;;;;7.20;75.86;99217.94;10242071;28;20051;-60
2023/12/05 14:45:34;;;;;;;0.55;0.25;;;;;;;7.16;75.48;99219.31;10241264;28;20047;-60
2023/12/05 14:50:36;;;;;;;0.50;0.10;;;;;;;7.11;75.82;99238.56;10253261;28;20059;-59
2023/12/05 14:55:39;;;;;;;0.40;0.20;;;;;;;7.06;75.96;99256.16;10250264;28;20055;-62
2023/12/05 15:00:40;;;;;;;0.73;0.73;;;;;;;6.91;75.53;99250.75;10240887;28;20043;-61
2023/12/05 15:05:42;;;;;;;1.17;0.28;;;;;;;6.86;75.62;99259.31;10244988;28;20486;-62
2023/12/05 15:10:45;;;;;;;0.30;0.10;;;;;;;6.75;75.69;99257.06;10240718;28;20039;-61
2023/12/05 15:15:47;;;;;;;0.63;0.20;;;;;;;6.66;75.68;99264.31;10236760;28;20035;-61
2023/12/05 15:20:49;;;;;;;1.33;0.30;;;;;;;6.56;75.98;99269.06;10243087;28;20090;-61
2023/12/05 15:25:51;;;;;;;1.45;0.20;;;;;;;6.50;76.27;99270.59;10239217;28;20103;-61
2023/12/05 15:30:52;;;;;;;1.55;0.20;;;;;;;6.53;76.09;99266.72;10228952;28;20099;-61
2023/12/05 15:35:54;;;;;;;1.30;0.10;;;;;;;6.58;75.46;99274.22;10242147;28;20102;-61
2023/12/05 15:40:55;;;;;;;0.60;0.10;;;;;;;6.55;76.11;99264.72;10239398;28;20040;-59
2023/12/05 15:45:57;;;;;;;0.65;0.20;;;;;;;6.49;76.31;99276.09;10239931;28;20130;-58
2023/12/05 15:50:59;;;;;;;1.08;0.13;;;;;;;6.41;76.48;99274.31;10239373;28;20099;-58
2023/12/05 15:56:01;;;;;;;2.15;0.20;;;;;;;6.34;76.63;99279.53;10239236;28;20055;-58
2023/12/05 16:01:02;;;;;;;3.00;0.40;;;;;;;6.35;76.62;99286.50;10239190;28;20539;-59
2023/12/05 16:06:05;;;;;;;0.65;0.20;;;;;;;6.41;76.73;99298.34;10237747;28;20050;-59
2023/12/05 16:11:06;;;;;;;1.45;0.30;;;;;;;6.42;76.75;99300.00;10236069;28;20154;-57
2023/12/05 16:16:08;;;;;;;0.80;0.30;;;;;;;6.46;75.97;99300.50;10234053;28;20043;-57
2023/12/05 16:21:10;;;;;;;1.65;0.40;;;;;;;6.46;76.62;99300.50;10235772;28;20043;-57
2023/12/05 16:26:11;;;;;;;0.73;0.30;;;;;;;6.42;76.79;99315.16;10236230;28;20051;-59
2023/12/05 16:31:13;;;;;;;3.13;0.40;;;;;;;6.50;76.61;99305.28;10223832;28;20700;-58
2023/12/05 16:36:23;;;;;;;3.72;0.80;;;;;;;6.48;76.13;99322.50;10250910;28;20058;-58
2023/12/05 16:41:29;;;;;;;0.80;0.45;;;;;;;6.38;76.97;99312.03;10238827;28;20047;-58
2023/12/05 16:46:31;;;;;;;0.90;0.30;;;;;;;6.33;77.09;99325.06;10236713;28;20082;-58
2023/12/05 16:51:33;;;;;;;2.55;0.50;;;;;;;6.39;77.04;99324.38;10232417;28;20048;-56
2023/12/05 16:56:34;;;;;;;1.08;0.50;;;;;;;6.35;77.18;99320.38;10239436;28;20051;-58
2023/12/05 17:01:36;;;;;;;2.03;0.50;;;;;;;6.25;77.26;99327.78;10222474;28;20051;-57
2023/12/05 17:06:37;;;;;;;1.42;0.57;;;;;;;6.18;76.81;99326.78;10228776;28;20483;-58
2023/12/05 17:11:39;;;;;;;1.90;0.63;;;;;;;6.11;77.26;99329.34;10221193;28;20071;-58
2023/12/05 17:16:40;;;;;;;3.63;0.90;;;;;;;6.06;77.88;99335.19;10233410;28;20517;-57
2023/12/05 17:21:42;;;;;;;2.03;0.50;;;;;;;6.07;77.71;99344.03;10227985;28;20051;-57
2023/12/05 17:26:43;;;;;;;2.28;0.60;;;;;;;6.08;76.80;99348.34;10230758;28;20106;-59
2023/12/05 17:31:45;;;;;;;1.63;0.60;;;;;;;5.95;77.98;99356.91;10236903;28;20043;-57
2023/12/05 17:36:46;;;;;;;3.60;0.90;;;;;;;5.83;78.05;99359.06;10248104;28;20059;-58
2023/12/05 17:41:48;;;;;;;1.58;0.65;;;;;;;5.81;77.71;99355.72;10247921;28;20047;-57
2023/12/05 17:46:50;;;;;;;0.93;0.60;;;;;;;5.69;78.70;99368.59;10253667;28;20507;-57
2023/12/05 17:51:52;;;;;;;0.68;0.30;;;;;;;5.66;78.23;99368.91;10225376;28;20047;-58
2023/12/05 17:56:54;;;;;;;1.15;0.30;;;;;;;5.66;78.67;99365.41;10247769;28;20483;-58
2023/12/05 18:01:56;;;;;;;1.58;0.47;;;;;;;5.63;78.19;99379.06;10227016;28;20496;-57
2023/12/05 18:06:58;;;;;;;3.58;1.20;;;;;;;5.67;77.67;99370.59;10241809;28;20047;-57
2023/12/05 18:12:21;;;;;;;1.48;0.73;;;;;;;5.69;77.35;99376.56;10247988;28;20055;-57
2023/12/05 18:17:23;;;;;;;1.90;0.80;;;;;;;5.68;77.92;99384.75;10228055;28;20051;-57
2023/12/05 18:22:27;;;;;;;2.65;0.60;;;;;;;5.64;77.95;99396.75;10225920;28;20052;-57
2023/12/05 18:27:30;;;;;;;1.27;0.50;;;;;;;5.51;78.89;99389.22;10255145;28;20106;-57
2023/12/05 18:32:33;;;;;;;0.73;0.40;;;;;;;5.47;78.71;99390.56;10245203;28;20065;-57
2023/12/05 18:37:36;;;;;;;0.45;0.30;;;;;;;5.48;79.20;99392.25;10253878;28;20059;-58
2023/12/05 18:42:38;;;;;;;3.83;0.70;;;;;;;5.47;78.15;99402.09;10230309;28;20054;-57
2023/12/05 18:47:39;;;;;;;2.88;0.45;;;;;;;5.47;78.66;99417.22;10241929;28;20047;-57
2023/12/05 18:52:41;;;;;;;0.80;0.45;;;;;;;5.46;78.20;99404.91;10251004;28;20039;-56
2023/12/05 18:57:43;;;;;;;5.15;0.60;;;;;;;5.45;78.65;99409.41;10240701;28;20043;-57
2023/12/05 19:02:45;;;;;;;1.55;0.50;;;;;;;5.52;78.14;99418.41;10236601;28;20040;-57
2023/12/05 19:07:47;;;;;;;1.40;0.90;;;;;;;5.47;79.20;99411.88;10239083;28;20106;-57
2023/12/05 19:12:49;;;;;;;1.48;0.60;;;;;;;5.55;78.77;99407.41;10239235;28;20491;-57
2023/12/05 19:17:52;;;;;;;3.53;1.13;;;;;;;5.57;79.05;99417.91;10242321;28;20095;-56
2023/12/05 19:22:54;;;;;;;1.80;1.17;;;;;;;5.59;78.35;99418.56;10240751;28;20059;-57
2023/12/05 19:27:56;;;;;;;1.55;0.88;;;;;;;5.65;78.39;99415.25;10227192;28;20126;-57
2023/12/05 19:32:58;;;;;;;2.25;1.55;;;;;;;5.62;79.02;99415.56;10226366;28;20129;-58
2023/12/05 19:38:01;;;;;;;2.47;0.95;;;;;;;5.58;79.16;99430.22;10212586;28;20062;-57
2023/12/05 19:43:05;;;;;;;1.30;0.70;;;;;;;5.55;78.84;99431.41;10232751;28;20051;-58
2023/12/05 19:48:06;;;;;;;1.95;1.00;;;;;;;5.56;79.03;99434.91;10233364;28;20503;-58
2023/12/05 19:53:12;;;;;;;1.20;0.40;;;;;;;5.60;79.05;99432.72;10245093;28;20058;-58
2023/12/05 19:58:15;;;;;;;1.60;0.60;;;;;;;5.65;78.65;99441.06;10226818;28;20071;-58
2023/12/05 20:03:18;;;;;;;2.45;0.80;;;;;;;5.66;78.17;99440.88;10231791;28;20146;-57
2023/12/05 20:08:21;;;;;;;3.55;0.95;;;;;;;5.69;78.73;99448.56;10226236;28;20149;-58
2023/12/05 20:13:22;;;;;;;3.58;1.10;;;;;;;5.71;78.87;99459.06;10227805;28;20053;-59
2023/12/05 20:18:24;;;;;;;3.47;1.02;;;;;;;5.79;78.72;99453.72;10240062;28;20372;-58
2023/12/05 20:23:27;;;;;;;13.38;2.10;;;;;;;5.80;78.17;99451.88;10236282;28;20083;-59
2023/12/05 20:28:28;;;;;;;5.20;1.50;;;;;;;5.85;78.75;99454.91;10233942;28;20050;-58
2023/12/05 20:33:30;;;;;;;2.70;1.67;;;;;;;5.79;79.12;99458.25;10238182;28;20060;-58
2023/12/05 20:38:34;;;;;;;3.80;2.33;;;;;;;5.84;78.35;99455.88;10243728;28;20150;-59
2023/12/05 20:43:40;;;;;;;4.50;1.87;;;;;;;5.78;79.14;99467.22;10231097;28;20070;-58
2023/12/05 20:48:42;;;;;;;3.47;1.95;;;;;;;5.88;79.02;99468.72;10228367;28;20125;-58
2023/12/05 20:53:46;;;;;;;4.57;1.92;;;;;;;5.90;78.79;99468.53;10243561;28;20047;-58
2023/12/05 20:58:47;;;;;;;5.30;2.70;;;;;;;5.89;78.70;99466.91;10244305;28;20062;-58
2023/12/05 21:03:49;;;;;;;7.15;2.30;;;;;;;5.83;79.00;99470.22;10226953;28;20047;-59
2023/12/05 21:08:50;;;;;;;4.35;2.33;;;;;;;5.81;79.13;99474.91;10227020;28;20070;-58
2023/12/05 21:14:12;;;;;;;8.65;2.33;;;;;;;5.91;78.13;99483.56;10223007;28;20392;-57
2023/12/05 21:19:14;;;;;;;6.82;2.83;;;;;;;5.85;78.13;99481.56;10228151;28;20055;-58
2023/12/05 21:24:16;;;;;;;7.18;2.65;;;;;;;5.92;78.67;99488.75;10227143;28;20532;-58
2023/12/05 21:29:17;;;;;;;6.80;2.50;;;;;;;5.91;78.49;99484.38;10239032;28;20039;-59
2023/12/05 21:34:18;;;;;;;5.45;2.65;;;;;;;5.87;78.08;99491.06;10227358;28;20057;-57
2023/12/05 21:39:20;;;;;;;6.13;2.80;;;;;;;5.89;78.67;99486.38;10232439;28;20043;-57
2023/12/05 21:44:21;;;;;;;7.07;3.03;;;;;;;5.86;78.84;99491.22;10226557;28;20658;-57
2023/12/05 21:49:24;;;;;;;5.00;3.28;;;;;;;5.79;78.69;99498.25;10228086;28;20166;-58
2023/12/05 21:54:25;;;;;;;10.57;3.90;;;;;;;5.74;78.32;99507.53;10230706;28;20044;-57
2023/12/05 21:59:27;;;;;;;9.00;4.07;;;;;;;5.66;78.78;99512.03;10248577;28;20051;-58
2023/12/05 22:04:32;;;;;;;6.10;3.63;;;;;;;5.65;78.99;99519.22;10235991;28;20059;-58
2023/12/05 22:09:34;;;;;;;9.55;3.83;;;;;;;5.57;79.11;99520.03;10241710;28;20043;-58
2023/12/05 22:14:36;;;;;;;6.47;3.33;;;;;;;5.55;79.39;99524.69;10232540;28;20035;-57
2023/12/05 22:19:37;;;;;;;8.13;3.85;;;;;;;5.53;79.54;99539.19;10233511;28;20039;-58
2023/12/05 22:24:39;;;;;;;8.13;3.47;;;;;;;5.51;79.61;99541.16;10235413;28;20059;-59
2023/12/05 22:29:44;;;;;;;8.13;4.88;;;;;;;5.45;79.38;99533.81;10236301;28;20149;-58
2023/12/05 22:34:45;;;;;;;7.47;3.70;;;;;;;5.41;79.84;99541.34;10234890;28;20046;-58
2023/12/05 22:39:47;;;;;;;6.07;3.78;;;;;;;5.38;79.24;99554.16;10238333;28;20063;-58
2023/12/05 22:44:49;;;;;;;11.82;4.38;;;;;;;5.34;79.38;99554.47;10237542;28;20051;-57
2023/12/05 22:49:50;;;;;;;10.65;4.32;;;;;;;5.34;79.75;99567.78;10238441;28;20043;-57
2023/12/05 22:54:52;;;;;;;7.80;4.38;;;;;;;5.39;79.95;99564.66;10238294;28;20142;-57
2023/12/05 22:59:53;;;;;;;7.45;3.75;;;;;;;5.34;80.22;99565.13;10239293;28;20047;-57
2023/12/05 23:04:55;;;;;;;6.20;3.35;;;;;;;5.37;79.94;99566.63;10238128;28;20130;-57
2023/12/05 23:09:57;;;;;;;8.48;4.28;;;;;;;5.43;79.76;99567.81;10240259;28;20079;-57
2023/12/05 23:14:59;;;;;;;8.55;3.38;;;;;;;5.43;79.83;99573.13;10237211;28;20117;-59
2023/12/05 23:20:00;;;;;;;9.93;4.72;;;;;;;5.47;79.63;99583.31;10237838;28;20039;-58
2023/12/05 23:25:02;;;;;;;7.13;3.58;;;;;;;5.53;80.06;99573.84;10239536;28;20043;-56